Spar Draco — LAFO6 — position and weather

sailwx.info

Track history (hours):
 
Tides and Currents Weather Stations Pressure Air Temp Water Temp Dewpoint Dewpoint Depression Visibility Wind Speed Wind Dir Waves Ship Positions

Spar Draco

Last reported at 2016-Jul-29 07:08 UTC. Time now 2016-Jul-30 09:18 UTC.
Position N 31°46' E 120°57'.

Length 190 m; draft 7 m.

Type: Cargo ship. MMSI: 257799000.

Date/timePositionNaut miles runAvg speedWind from/ knotsBaromVisibWave heightAir tempDewpointWater temp
2016-Jul-29 07:08N 31°46' E 120°57'0 0.1
2016-Jul-29 06:29N 31°46' E 120°57'0 0.0
2016-Jul-28 17:20N 31°46' E 120°57'1 0.1
2016-Jul-28 03:32N 31°47' E 120°58'8 8.6
2016-Jul-28 02:33N 31°44' E 121°07'1 1.4
2016-Jul-28 01:31N 31°43' E 121°08'0 0.0
2016-Jul-27 21:24N 31°43' E 121°08'0 0.0
2016-Jul-27 20:24N 31°43' E 121°08'0 0.0
2016-Jul-27 19:10N 31°43' E 121°08'0 0.0
2016-Jul-27 17:04N 31°43' E 121°08'0 0.0
2016-Jul-27 15:28N 31°43' E 121°08'0 0.0
2016-Jul-27 14:22N 31°43' E 121°08'0 0.0
2016-Jul-27 13:31N 31°43' E 121°08'0 0.0
2016-Jul-27 12:25N 31°43' E 121°08'0 0.2
2016-Jul-27 11:33N 31°43' E 121°08'0 0.1
2016-Jul-27 10:30N 31°43' E 121°08'0 0.2
2016-Jul-27 09:30N 31°43' E 121°08'0 0.1
2016-Jul-27 08:24N 31°43' E 121°08'0 0.0
2016-Jul-27 07:30N 31°43' E 121°08'0 0.1
2016-Jul-27 06:30N 31°43' E 121°08'0 0.0
2016-Jul-27 05:24N 31°43' E 121°08'0 0.0
2016-Jul-27 04:30N 31°43' E 121°08'0 0.0
2016-Jul-27 03:18N 31°43' E 121°08'0 0.0
2016-Jul-27 02:30N 31°43' E 121°08'0 0.0
2016-Jul-27 01:30N 31°43' E 121°08'0 0.0
2016-Jul-27 00:30N 31°43' E 121°08'0 0.1
2016-Jul-26 23:30N 31°43' E 121°08'0 0.1
2016-Jul-26 22:16N 31°43' E 121°08'0 0.1
2016-Jul-26 21:28N 31°43' E 121°08'0 0.1
2016-Jul-26 19:28N 31°43' E 121°08'0 0.0
2016-Jul-26 18:28N 31°43' E 121°08'0 0.0
2016-Jul-26 17:28N 31°43' E 121°08'0 0.0
2016-Jul-26 16:22N 31°43' E 121°08'0 0.0
2016-Jul-26 15:28N 31°43' E 121°08'0 0.0
2016-Jul-26 14:16N 31°43' E 121°08'0 0.0
2016-Jul-26 13:32N 31°43' E 121°08'0 0.0
2016-Jul-26 12:32N 31°43' E 121°08'0 0.2
2016-Jul-26 11:31N 31°43' E 121°08'0 0.1
2016-Jul-26 10:11N 31°43' E 121°08'0 0.1
2016-Jul-26 08:08N 31°43' E 121°08'0 0.0
2016-Jul-26 06:32N 31°43' E 121°08'0 0.0
2016-Jul-26 04:33N 31°43' E 121°08'0 0.0
2016-Jul-26 02:15N 31°43' E 121°08'0 0.0
2016-Jul-26 01:33N 31°43' E 121°08'0 0.0
2016-Jul-26 00:27N 31°43' E 121°08'0 0.0
2016-Jul-25 23:33N 31°43' E 121°08'0 0.2
2016-Jul-25 22:30N 31°43' E 121°08'0 0.1
2016-Jul-25 21:27N 31°43' E 121°08'0 0.1
2016-Jul-25 20:09N 31°43' E 121°08'0 0.3
2016-Jul-25 19:27N 31°43' E 121°08'0 0.1
2016-Jul-25 18:33N 31°43' E 121°08'0 0.0
2016-Jul-25 17:33N 31°43' E 121°08'0 0.0
2016-Jul-25 16:27N 31°43' E 121°08'0 0.0
2016-Jul-25 15:33N 31°43' E 121°08'0 0.0
2016-Jul-25 14:33N 31°43' E 121°08'0 0.0
2016-Jul-25 13:33N 31°43' E 121°08'0 0.1
2016-Jul-25 12:30N 31°43' E 121°08'8 8.7
2016-Jul-25 11:33N 31°38' E 121°15'1212.0
2016-Jul-25 10:33N 31°30' E 121°26'9 8.6
2016-Jul-25 09:33N 31°24' E 121°34'9 8.7
2016-Jul-25 08:31N 31°19' E 121°42'51 2.5
2016-Jul-24 12:09N 31°02' E 122°39'0 0.1
2016-Jul-24 10:31N 31°02' E 122°39'0 0.0
2016-Jul-24 09:23N 31°02' E 122°39'0 0.1
2016-Jul-24 08:18N 31°02' E 122°39'0 0.7
2016-Jul-24 07:33N 31°01' E 122°39'1111.0
2016-Jul-24 06:33N 30°52' E 122°33'1513.9
2016-Jul-24 05:29N 30°38' E 122°38'  
Track history (hours):
 
Tides and Currents Weather Stations Pressure Air Temp Water Temp Dewpoint Dewpoint Depression Visibility Wind Speed Wind Dir Waves Ship Positions

Spar Draco

Last reported at 2016-Jul-29 07:08 UTC. Time now 2016-Jul-30 09:18 UTC.
Position N 31°46' E 120°57'.

Length 190 m; draft 7 m.

Type: Cargo ship. MMSI: 257799000.

Date/timePositionNaut miles runAvg speedWind from/ knotsBaromVisibWave heightAir tempDewpointWater temp
2016-Jul-29 07:08N 31°46' E 120°57'0 0.1
2016-Jul-29 06:29N 31°46' E 120°57'0 0.0
2016-Jul-28 17:20N 31°46' E 120°57'1 0.1
2016-Jul-28 03:32N 31°47' E 120°58'8 8.6
2016-Jul-28 02:33N 31°44' E 121°07'1 1.4
2016-Jul-28 01:31N 31°43' E 121°08'0 0.0
2016-Jul-27 21:24N 31°43' E 121°08'0 0.0
2016-Jul-27 20:24N 31°43' E 121°08'0 0.0
2016-Jul-27 19:10N 31°43' E 121°08'0 0.0
2016-Jul-27 17:04N 31°43' E 121°08'0 0.0
2016-Jul-27 15:28N 31°43' E 121°08'0 0.0
2016-Jul-27 14:22N 31°43' E 121°08'0 0.0
2016-Jul-27 13:31N 31°43' E 121°08'0 0.0
2016-Jul-27 12:25N 31°43' E 121°08'0 0.2
2016-Jul-27 11:33N 31°43' E 121°08'0 0.1
2016-Jul-27 10:30N 31°43' E 121°08'0 0.2
2016-Jul-27 09:30N 31°43' E 121°08'0 0.1
2016-Jul-27 08:24N 31°43' E 121°08'0 0.0
2016-Jul-27 07:30N 31°43' E 121°08'0 0.1
2016-Jul-27 06:30N 31°43' E 121°08'0 0.0
2016-Jul-27 05:24N 31°43' E 121°08'0 0.0
2016-Jul-27 04:30N 31°43' E 121°08'0 0.0
2016-Jul-27 03:18N 31°43' E 121°08'0 0.0
2016-Jul-27 02:30N 31°43' E 121°08'0 0.0
2016-Jul-27 01:30N 31°43' E 121°08'0 0.0
2016-Jul-27 00:30N 31°43' E 121°08'0 0.1
2016-Jul-26 23:30N 31°43' E 121°08'0 0.1
2016-Jul-26 22:16N 31°43' E 121°08'0 0.1
2016-Jul-26 21:28N 31°43' E 121°08'0 0.1
2016-Jul-26 19:28N 31°43' E 121°08'0 0.0
2016-Jul-26 18:28N 31°43' E 121°08'0 0.0
2016-Jul-26 17:28N 31°43' E 121°08'0 0.0
2016-Jul-26 16:22N 31°43' E 121°08'0 0.0
2016-Jul-26 15:28N 31°43' E 121°08'0 0.0
2016-Jul-26 14:16N 31°43' E 121°08'0 0.0
2016-Jul-26 13:32N 31°43' E 121°08'0 0.0
2016-Jul-26 12:32N 31°43' E 121°08'0 0.2
2016-Jul-26 11:31N 31°43' E 121°08'0 0.1
2016-Jul-26 10:11N 31°43' E 121°08'0 0.1
2016-Jul-26 08:08N 31°43' E 121°08'0 0.0
2016-Jul-26 06:32N 31°43' E 121°08'0 0.0
2016-Jul-26 04:33N 31°43' E 121°08'0 0.0
2016-Jul-26 02:15N 31°43' E 121°08'0 0.0
2016-Jul-26 01:33N 31°43' E 121°08'0 0.0
2016-Jul-26 00:27N 31°43' E 121°08'0 0.0
2016-Jul-25 23:33N 31°43' E 121°08'0 0.2
2016-Jul-25 22:30N 31°43' E 121°08'0 0.1
2016-Jul-25 21:27N 31°43' E 121°08'0 0.1
2016-Jul-25 20:09N 31°43' E 121°08'0 0.3
2016-Jul-25 19:27N 31°43' E 121°08'0 0.1
2016-Jul-25 18:33N 31°43' E 121°08'0 0.0
2016-Jul-25 17:33N 31°43' E 121°08'0 0.0
2016-Jul-25 16:27N 31°43' E 121°08'0 0.0
2016-Jul-25 15:33N 31°43' E 121°08'0 0.0
2016-Jul-25 14:33N 31°43' E 121°08'0 0.0
2016-Jul-25 13:33N 31°43' E 121°08'0 0.1
2016-Jul-25 12:30N 31°43' E 121°08'8 8.7
2016-Jul-25 11:33N 31°38' E 121°15'1212.0
2016-Jul-25 10:33N 31°30' E 121°26'9 8.6
2016-Jul-25 09:33N 31°24' E 121°34'9 8.7
2016-Jul-25 08:31N 31°19' E 121°42'51 2.5
2016-Jul-24 12:09N 31°02' E 122°39'0 0.1
2016-Jul-24 10:31N 31°02' E 122°39'0 0.0
2016-Jul-24 09:23N 31°02' E 122°39'0 0.1
2016-Jul-24 08:18N 31°02' E 122°39'0 0.7
2016-Jul-24 07:33N 31°01' E 122°39'1111.0
2016-Jul-24 06:33N 30°52' E 122°33'1513.9
2016-Jul-24 05:29N 30°38' E 122°38'  

Dump ship's entire track history